Time;durP1;ratioP1;P1;durP2;ratioP2;P2;SDS_P1;SDS_P2;PMS_P1;PMS_P2;Temp;Humidity;BMP_temperature;BMP_pressure;BME280_temperature;BME280_humidity;BME280_pressure;Samples;Min_cycle;Max_cycle;Signal;HPM_P1;HPM_P2
2023/09/22 00:01:38;;;;;;;;;;;18.00;72.20;;;;;;4172878;28;20007;-87
2023/09/22 00:03:59;;;;;;;;;;;17.90;72.20;;;;;;4173612;28;20406;-85
2023/09/22 00:06:22;;;;;;;;;;;17.90;72.20;;;;;;4172120;28;20016;-86
2023/09/22 00:08:42;;;;;;;;;;;17.90;72.10;;;;;;4159366;28;19913;-87
2023/09/22 00:11:07;;;;;;;;;;;18.00;72.00;;;;;;4172644;28;19935;-86
2023/09/22 00:13:28;;;;;;;;;;;17.90;72.10;;;;;;4170311;28;19928;-86
2023/09/22 00:15:29;;;;;;;;;;;17.90;72.10;;;;;;4170068;28;19998;-86
2023/09/22 00:17:29;;;;;;;;;;;17.90;72.10;;;;;;4156607;28;20347;-86
2023/09/22 00:19:31;;;;;;;;;;;17.80;72.00;;;;;;4175622;28;19921;-86
2023/09/22 00:21:32;;;;;;;;;;;17.90;72.10;;;;;;4174896;28;19916;-87
2023/09/22 00:23:52;;;;;;;;;;;17.90;72.10;;;;;;4174450;28;19927;-86
2023/09/22 00:25:54;;;;;;;;;;;17.90;72.10;;;;;;4138917;28;19917;-86
2023/09/22 00:28:14;;;;;;;;;;;17.90;72.10;;;;;;4158235;28;19923;-86
2023/09/22 00:30:35;;;;;;;;;;;17.80;72.10;;;;;;4169094;28;20418;-85
2023/09/22 00:32:57;;;;;;;;;;;17.80;72.30;;;;;;4170964;28;20375;-87
2023/09/22 00:35:17;;;;;;;;;;;17.80;72.00;;;;;;4158921;28;20398;-86
2023/09/22 00:37:40;;;;;;;;;;;17.80;72.00;;;;;;4169400;28;20340;-86
2023/09/22 00:40:00;;;;;;;;;;;17.70;72.10;;;;;;4148529;28;20406;-85
2023/09/22 00:42:21;;;;;;;;;;;17.70;72.10;;;;;;4167793;28;20421;-85
2023/09/22 00:44:42;;;;;;;;;;;17.70;72.10;;;;;;4170724;28;20393;-86
2023/09/22 00:47:04;;;;;;;;;;;17.80;72.30;;;;;;4158097;28;19917;-85
2023/09/22 00:49:25;;;;;;;;;;;17.70;72.20;;;;;;4173499;28;20484;-85
2023/09/22 00:51:46;;;;;;;;;;;17.70;71.80;;;;;;4153436;28;20486;-86
2023/09/22 00:53:48;;;;;;;;;;;17.60;72.00;;;;;;4169390;28;20547;-86
2023/09/22 00:55:50;;;;;;;;;;;17.60;72.00;;;;;;4168585;28;20647;-86
2023/09/22 00:57:52;;;;;;;;;;;17.60;72.10;;;;;;4169980;28;20012;-87
2023/09/22 00:59:53;;;;;;;;;;;17.60;71.80;;;;;;4140555;28;19965;-85
2023/09/22 01:01:54;;;;;;;;;;;17.60;71.70;;;;;;4150083;28;19921;-85
2023/09/22 01:03:55;;;;;;;;;;;17.60;71.40;;;;;;4161105;28;19955;-86
2023/09/22 01:05:58;;;;;;;;;;;17.50;71.50;;;;;;4151462;28;19924;-85
2023/09/22 01:08:18;;;;;;;;;;;17.50;71.70;;;;;;4169028;28;20432;-85
2023/09/22 01:10:40;;;;;;;;;;;17.50;71.90;;;;;;4165647;28;21380;-85
2023/09/22 01:13:00;;;;;;;;;;;17.40;71.80;;;;;;4151300;28;20446;-86
2023/09/22 01:15:21;;;;;;;;;;;17.50;71.90;;;;;;4168340;28;20417;-86
2023/09/22 01:17:42;;;;;;;;;;;17.40;71.90;;;;;;4155182;28;20413;-85
2023/09/22 01:20:03;;;;;;;;;;;17.50;72.00;;;;;;4170839;28;20401;-85
2023/09/22 01:22:24;;;;;;;;;;;17.30;71.70;;;;;;4170171;28;20375;-86
2023/09/22 01:24:44;;;;;;;;;;;17.30;71.70;;;;;;4156949;28;20454;-85
2023/09/22 01:27:05;;;;;;;;;;;17.40;71.90;;;;;;4168215;28;20359;-86
2023/09/22 01:29:26;;;;;;;;;;;17.30;71.50;;;;;;4159190;28;19913;-86
2023/09/22 01:31:46;;;;;;;;;;;17.30;71.70;;;;;;4172110;28;20456;-86
2023/09/22 01:34:08;;;;;;;;;;;17.30;71.80;;;;;;4164676;28;20536;-85
2023/09/22 01:36:32;;;;;;;;;;;17.30;71.90;;;;;;4171432;28;20390;-86
2023/09/22 01:38:36;;;;;;;;;;;17.30;72.10;;;;;;4152530;28;20448;-84
2023/09/22 01:40:36;;;;;;;;;;;17.20;72.30;;;;;;4171034;28;19916;-85
2023/09/22 01:42:37;;;;;;;;;;;17.20;72.00;;;;;;4166601;28;19913;-86
2023/09/22 01:44:57;;;;;;;;;;;17.20;71.80;;;;;;4169729;28;20290;-85
2023/09/22 01:47:18;;;;;;;;;;;17.20;71.70;;;;;;4170449;28;20326;-86
2023/09/22 01:49:18;;;;;;;;;;;17.10;71.80;;;;;;4167070;28;19921;-86
2023/09/22 01:51:39;;;;;;;;;;;17.20;72.10;;;;;;4167121;28;20370;-85
2023/09/22 01:54:00;;;;;;;;;;;17.10;71.70;;;;;;4170578;28;20489;-86
2023/09/22 01:56:21;;;;;;;;;;;17.10;71.60;;;;;;4166864;28;20335;-86
2023/09/22 01:58:41;;;;;;;;;;;17.00;71.70;;;;;;4156960;28;21173;-86
2023/09/22 02:01:02;;;;;;;;;;;17.10;72.10;;;;;;4167364;28;20457;-86
2023/09/22 02:03:23;;;;;;;;;;;17.10;71.90;;;;;;4156659;28;20525;-86
2023/09/22 02:05:43;;;;;;;;;;;17.10;73.00;;;;;;4155797;28;20559;-86
2023/09/22 02:08:04;;;;;;;;;;;17.10;72.50;;;;;;4171107;28;20279;-85
2023/09/22 02:10:05;;;;;;;;;;;17.00;72.80;;;;;;4171075;28;19995;-87
2023/09/22 02:12:06;;;;;;;;;;;17.00;72.40;;;;;;4147788;28;20450;-86
2023/09/22 02:14:19;;;;;;;;;;;17.10;72.80;;;;;;4154238;28;19921;-87
2023/09/22 02:16:20;;;;;;;;;;;17.10;72.40;;;;;;4170511;28;20370;-85
2023/09/22 02:18:20;;;;;;;;;;;17.10;72.50;;;;;;4155300;28;20572;-86
2023/09/22 02:20:24;;;;;;;;;;;17.10;72.60;;;;;;4170125;28;19921;-86
2023/09/22 02:22:46;;;;;;;;;;;17.00;72.70;;;;;;4168928;28;20291;-86
2023/09/22 02:25:06;;;;;;;;;;;17.00;72.90;;;;;;4168714;28;20272;-86
2023/09/22 02:27:07;;;;;;;;;;;17.00;72.90;;;;;;4168360;28;20011;-85
2023/09/22 02:29:27;;;;;;;;;;;16.90;72.90;;;;;;4167409;28;20476;-85
2023/09/22 02:31:48;;;;;;;;;;;16.90;73.10;;;;;;4169702;28;19992;-86
2023/09/22 02:34:09;;;;;;;;;;;17.00;73.20;;;;;;4168194;28;20413;-86
2023/09/22 02:36:29;;;;;;;;;;;16.90;73.20;;;;;;4151627;28;20338;-86
2023/09/22 02:38:50;;;;;;;;;;;16.90;73.50;;;;;;4169281;28;20294;-86
2023/09/22 02:41:12;;;;;;;;;;;16.80;73.70;;;;;;4169506;28;20311;-87
2023/09/22 02:43:32;;;;;;;;;;;16.80;73.50;;;;;;4189891;28;19913;-87
2023/09/22 02:45:53;;;;;;;;;;;16.80;73.30;;;;;;4155149;28;20344;-86
2023/09/22 02:48:13;;;;;;;;;;;16.80;73.50;;;;;;4153820;28;20331;-85
2023/09/22 02:50:16;;;;;;;;;;;16.80;73.40;;;;;;4136278;28;19952;-86
2023/09/22 02:52:16;;;;;;;;;;;16.80;73.60;;;;;;4153663;28;19917;-86
2023/09/22 02:54:17;;;;;;;;;;;16.70;73.10;;;;;;4151916;28;20013;-86
2023/09/22 02:56:18;;;;;;;;;;;16.70;72.70;;;;;;4139207;28;20012;-85
2023/09/22 02:58:18;;;;;;;;;;;16.70;72.90;;;;;;4153632;28;19917;-86
2023/09/22 03:00:20;;;;;;;;;;;16.70;73.10;;;;;;4154195;28;19967;-86
2023/09/22 03:02:21;;;;;;;;;;;16.60;73.20;;;;;;4166872;28;19968;-86
2023/09/22 03:04:42;;;;;;;;;;;16.60;73.30;;;;;;4168898;28;20471;-86
2023/09/22 03:07:02;;;;;;;;;;;16.60;73.00;;;;;;4169834;28;19959;-86
2023/09/22 03:09:23;;;;;;;;;;;16.60;73.00;;;;;;4167917;28;20391;-86
2023/09/22 03:11:43;;;;;;;;;;;16.60;72.90;;;;;;4167690;28;20528;-86
2023/09/22 03:14:04;;;;;;;;;;;16.60;73.00;;;;;;4149996;28;19917;-86
2023/09/22 03:16:26;;;;;;;;;;;16.50;73.20;;;;;;4156638;28;20517;-86
2023/09/22 03:18:49;;;;;;;;;;;16.60;73.20;;;;;;4167171;28;20299;-86
2023/09/22 03:21:09;;;;;;;;;;;16.50;73.20;;;;;;4169416;28;20342;-86
2023/09/22 03:23:30;;;;;;;;;;;16.50;73.40;;;;;;4155187;28;19988;-86
2023/09/22 03:25:50;;;;;;;;;;;16.50;73.30;;;;;;4168538;28;20627;-86
2023/09/22 03:28:11;;;;;;;;;;;16.40;73.30;;;;;;4167122;28;20179;-87
2023/09/22 03:30:32;;;;;;;;;;;16.40;73.40;;;;;;4169354;28;20277;-86
2023/09/22 03:32:33;;;;;;;;;;;16.40;73.40;;;;;;4167617;28;19932;-86
2023/09/22 03:34:34;;;;;;;;;;;16.40;73.50;;;;;;4151334;28;20982;-86
2023/09/22 03:36:35;;;;;;;;;;;16.30;73.40;;;;;;4167582;28;20008;-86
2023/09/22 03:38:57;;;;;;;;;;;16.40;73.40;;;;;;4148955;28;21612;-86
2023/09/22 03:41:00;;;;;;;;;;;16.30;73.50;;;;;;4155834;28;20469;-85
2023/09/22 03:43:21;;;;;;;;;;;16.30;73.80;;;;;;4169596;28;20069;-85
2023/09/22 03:45:42;;;;;;;;;;;16.30;74.10;;;;;;4155851;28;20488;-86
2023/09/22 03:48:03;;;;;;;;;;;16.30;74.20;;;;;;4171402;28;20384;-86
2023/09/22 03:50:24;;;;;;;;;;;16.20;74.80;;;;;;4174579;28;19913;-86
2023/09/22 03:52:42;;;;;;;;;;;16.20;74.10;;;;;;4172079;28;19979;-88
2023/09/22 03:54:43;;;;;;;;;;;16.20;74.00;;;;;;4153820;28;19923;-86
2023/09/22 03:56:44;;;;;;;;;;;16.10;73.80;;;;;;4168914;28;19924;-86
2023/09/22 03:58:45;;;;;;;;;;;16.10;73.80;;;;;;4174388;28;19913;-86
2023/09/22 04:00:46;;;;;;;;;;;16.20;74.10;;;;;;4154630;28;19921;-88
2023/09/22 04:02:47;;;;;;;;;;;16.00;73.90;;;;;;4169775;28;19923;-86
2023/09/22 04:04:48;;;;;;;;;;;16.00;74.00;;;;;;4153368;28;21039;-86
2023/09/22 04:06:48;;;;;;;;;;;16.00;74.10;;;;;;4151541;28;20469;-86
2023/09/22 04:08:49;;;;;;;;;;;16.00;74.10;;;;;;4170471;28;19932;-86
2023/09/22 04:10:50;;;;;;;;;;;16.00;74.20;;;;;;4170558;28;19913;-87
2023/09/22 04:12:50;;;;;;;;;;;16.00;74.30;;;;;;4170437;28;19921;-86
2023/09/22 04:14:51;;;;;;;;;;;16.00;74.30;;;;;;4172151;28;20229;-86
2023/09/22 04:16:51;;;;;;;;;;;16.00;74.50;;;;;;4149396;28;19929;-86
2023/09/22 04:18:54;;;;;;;;;;;15.90;74.40;;;;;;4174120;28;19920;-86
2023/09/22 04:20:55;;;;;;;;;;;15.90;74.30;;;;;;4156758;28;19948;-86
2023/09/22 04:22:58;;;;;;;;;;;15.90;74.20;;;;;;4181482;28;19920;-88
2023/09/22 04:25:07;;;;;;;;;;;15.90;74.40;;;;;;4182222;28;19917;-88
2023/09/22 04:27:08;;;;;;;;;;;15.90;74.40;;;;;;4198034;28;19948;-89
2023/09/22 04:29:10;;;;;;;;;;;15.80;74.50;;;;;;4177683;28;19980;-86
2023/09/22 04:31:12;;;;;;;;;;;15.80;74.30;;;;;;4159583;28;19965;-87
2023/09/22 04:33:13;;;;;;;;;;;15.80;74.30;;;;;;4155215;28;19913;-86
2023/09/22 04:35:13;;;;;;;;;;;15.80;74.40;;;;;;4171630;28;19913;-86
2023/09/22 04:37:15;;;;;;;;;;;15.80;74.20;;;;;;4177576;28;19913;-87
2023/09/22 04:39:16;;;;;;;;;;;15.80;74.30;;;;;;4156775;28;19917;-87
2023/09/22 04:41:19;;;;;;;;;;;15.80;74.40;;;;;;4172394;28;19909;-87
2023/09/22 04:43:20;;;;;;;;;;;15.70;74.30;;;;;;4156311;28;19920;-87
2023/09/22 04:45:23;;;;;;;;;;;15.80;74.40;;;;;;4151090;28;19921;-87
2023/09/22 04:47:23;;;;;;;;;;;15.80;74.50;;;;;;4175060;28;20462;-87
2023/09/22 04:49:24;;;;;;;;;;;15.70;74.40;;;;;;4174890;28;19921;-88
2023/09/22 04:51:27;;;;;;;;;;;15.70;74.40;;;;;;4172972;28;19920;-87
2023/09/22 04:53:28;;;;;;;;;;;15.70;74.40;;;;;;4175366;28;19908;-86
2023/09/22 04:55:31;;;;;;;;;;;15.70;74.60;;;;;;4156220;28;19917;-88
2023/09/22 04:57:31;;;;;;;;;;;15.60;74.40;;;;;;4177722;28;19956;-87
2023/09/22 04:59:32;;;;;;;;;;;15.60;74.40;;;;;;4171033;28;19947;-89
2023/09/22 05:01:32;;;;;;;;;;;15.60;74.40;;;;;;4171657;28;19920;-88
2023/09/22 05:03:34;;;;;;;;;;;15.70;74.70;;;;;;4159450;28;19956;-86
2023/09/22 05:05:34;;;;;;;;;;;15.60;74.70;;;;;;4173427;28;19917;-87
2023/09/22 05:07:35;;;;;;;;;;;15.60;74.70;;;;;;4154802;28;20003;-87
2023/09/22 05:09:35;;;;;;;;;;;15.60;74.60;;;;;;4174435;28;19917;-87
2023/09/22 05:11:36;;;;;;;;;;;15.60;74.70;;;;;;4168078;28;20044;-87
2023/09/22 05:13:36;;;;;;;;;;;15.50;74.70;;;;;;4172739;28;19943;-87
2023/09/22 05:15:39;;;;;;;;;;;15.50;74.80;;;;;;4174713;28;19916;-87
2023/09/22 05:17:40;;;;;;;;;;;15.60;74.90;;;;;;4171118;28;19944;-88
2023/09/22 05:19:41;;;;;;;;;;;15.50;75.00;;;;;;4170305;28;20019;-88
2023/09/22 05:21:41;;;;;;;;;;;15.50;75.10;;;;;;4171913;28;19917;-85
2023/09/22 05:23:42;;;;;;;;;;;15.50;75.00;;;;;;4173231;28;20445;-85
2023/09/22 05:25:43;;;;;;;;;;;15.50;75.30;;;;;;4174745;28;20003;-85
2023/09/22 05:27:44;;;;;;;;;;;15.50;75.40;;;;;;4173873;28;19913;-85
2023/09/22 05:29:45;;;;;;;;;;;15.50;75.70;;;;;;4192865;28;19936;-86
2023/09/22 05:31:45;;;;;;;;;;;15.50;75.60;;;;;;4178170;28;19905;-85
2023/09/22 05:33:46;;;;;;;;;;;15.60;75.60;;;;;;4175036;28;19982;-84
2023/09/22 05:35:47;;;;;;;;;;;15.50;75.50;;;;;;4178554;28;19925;-85
2023/09/22 05:37:52;;;;;;;;;;;15.50;75.50;;;;;;4158073;28;19951;-85
2023/09/22 05:39:53;;;;;;;;;;;15.50;75.50;;;;;;4156252;28;19917;-85
2023/09/22 05:41:53;;;;;;;;;;;15.50;75.50;;;;;;4174119;28;20313;-85
2023/09/22 05:43:56;;;;;;;;;;;15.50;75.60;;;;;;4159313;28;19921;-85
2023/09/22 05:45:57;;;;;;;;;;;15.60;76.40;;;;;;4157729;28;19920;-85
2023/09/22 05:47:57;;;;;;;;;;;15.50;75.60;;;;;;4174483;28;19912;-85
2023/09/22 05:49:59;;;;;;;;;;;15.50;75.60;;;;;;4162915;28;19948;-85
2023/09/22 05:52:00;;;;;;;;;;;15.50;75.70;;;;;;4156522;28;19953;-85
2023/09/22 05:54:01;;;;;;;;;;;15.50;75.60;;;;;;4157207;28;20410;-85
2023/09/22 05:56:06;;;;;;;;;;;15.50;75.70;;;;;;4139512;28;19921;-84
2023/09/22 05:58:08;;;;;;;;;;;15.50;75.80;;;;;;4155989;28;19917;-85
2023/09/22 06:00:18;;;;;;;;;;;15.50;75.70;;;;;;4158316;28;20015;-85
2023/09/22 06:02:19;;;;;;;;;;;15.50;75.70;;;;;;4155194;28;19920;-85
2023/09/22 06:04:20;;;;;;;;;;;15.60;75.80;;;;;;4157069;28;19909;-85
2023/09/22 06:06:21;;;;;;;;;;;15.50;75.70;;;;;;4158732;28;19924;-84
2023/09/22 06:08:21;;;;;;;;;;;15.60;76.00;;;;;;4156957;28;19921;-86
2023/09/22 06:10:22;;;;;;;;;;;15.50;75.80;;;;;;4169860;28;19914;-85
2023/09/22 06:12:23;;;;;;;;;;;15.60;75.90;;;;;;4151689;28;19913;-85
2023/09/22 06:14:24;;;;;;;;;;;15.60;76.10;;;;;;4174693;28;19943;-85
2023/09/22 06:16:25;;;;;;;;;;;15.60;76.10;;;;;;4144212;28;19951;-84
2023/09/22 06:18:26;;;;;;;;;;;15.50;76.10;;;;;;4155639;28;19909;-84
2023/09/22 06:20:26;;;;;;;;;;;15.50;76.30;;;;;;4160098;28;20021;-84
2023/09/22 06:22:27;;;;;;;;;;;15.50;76.10;;;;;;4140933;28;19980;-85
2023/09/22 06:24:28;;;;;;;;;;;15.50;76.30;;;;;;4172993;28;19912;-84
2023/09/22 06:26:28;;;;;;;;;;;15.50;76.20;;;;;;4155236;28;20379;-84
2023/09/22 06:28:30;;;;;;;;;;;15.50;76.10;;;;;;4157191;28;20063;-84
2023/09/22 06:30:31;;;;;;;;;;;15.50;76.20;;;;;;4156928;28;20176;-84
2023/09/22 06:32:31;;;;;;;;;;;15.50;76.20;;;;;;4155677;28;20522;-84
2023/09/22 06:34:32;;;;;;;;;;;15.50;76.70;;;;;;4158743;28;20000;-84
2023/09/22 06:36:34;;;;;;;;;;;15.50;76.60;;;;;;4173209;28;19940;-85
2023/09/22 06:38:35;;;;;;;;;;;15.50;76.60;;;;;;4171785;28;19913;-84
2023/09/22 06:40:36;;;;;;;;;;;15.50;76.50;;;;;;4173502;28;19920;-84
2023/09/22 06:42:41;;;;;;;;;;;15.60;76.70;;;;;;4137261;28;20048;-84
2023/09/22 06:44:42;;;;;;;;;;;15.60;76.70;;;;;;4155773;28;19963;-85
2023/09/22 06:46:43;;;;;;;;;;;15.50;76.60;;;;;;4169633;28;19917;-85
2023/09/22 06:48:44;;;;;;;;;;;15.50;76.60;;;;;;4156725;28;19931;-84
2023/09/22 06:50:45;;;;;;;;;;;15.50;77.00;;;;;;4150797;28;20024;-84
2023/09/22 06:52:45;;;;;;;;;;;15.60;76.80;;;;;;4173270;28;19920;-84
2023/09/22 06:54:46;;;;;;;;;;;15.60;77.00;;;;;;4174398;28;19954;-85
2023/09/22 06:56:46;;;;;;;;;;;15.60;76.70;;;;;;4172595;28;20378;-84
2023/09/22 06:58:49;;;;;;;;;;;15.60;77.00;;;;;;4148610;28;19913;-84
2023/09/22 07:00:49;;;;;;;;;;;15.60;76.90;;;;;;4172803;28;19950;-85
2023/09/22 07:02:50;;;;;;;;;;;15.60;76.80;;;;;;4170122;28;19975;-84
2023/09/22 07:04:50;;;;;;;;;;;15.70;77.10;;;;;;4152183;28;19952;-84
2023/09/22 07:06:52;;;;;;;;;;;15.70;77.20;;;;;;4153351;28;19929;-84
2023/09/22 07:08:52;;;;;;;;;;;15.70;77.50;;;;;;4152744;28;20026;-85
2023/09/22 07:10:59;;;;;;;;;;;15.80;77.50;;;;;;4154381;28;19913;-84
2023/09/22 07:13:00;;;;;;;;;;;15.80;77.40;;;;;;4174630;28;20650;-86
2023/09/22 07:15:00;;;;;;;;;;;15.80;77.60;;;;;;4154866;28;19948;-85
2023/09/22 07:17:01;;;;;;;;;;;15.90;78.30;;;;;;4153791;28;19925;-85
2023/09/22 07:19:02;;;;;;;;;;;15.90;77.50;;;;;;4171166;28;19919;-84
2023/09/22 07:21:06;;;;;;;;;;;16.00;77.60;;;;;;4173980;28;19964;-85
2023/09/22 07:23:06;;;;;;;;;;;16.10;77.70;;;;;;4169900;28;19967;-85
2023/09/22 07:25:08;;;;;;;;;;;16.00;77.60;;;;;;4170310;28;19917;-84
2023/09/22 07:27:09;;;;;;;;;;;16.10;77.50;;;;;;4169491;28;19912;-85
2023/09/22 07:29:09;;;;;;;;;;;16.10;77.50;;;;;;4157104;28;19917;-85
2023/09/22 07:31:11;;;;;;;;;;;16.10;77.50;;;;;;4170022;28;20029;-85
2023/09/22 07:33:13;;;;;;;;;;;16.20;77.50;;;;;;4169540;28;20597;-85
2023/09/22 07:35:14;;;;;;;;;;;16.30;77.50;;;;;;4171259;28;19921;-85
2023/09/22 07:37:15;;;;;;;;;;;16.30;77.40;;;;;;4168007;28;19917;-85
2023/09/22 07:39:16;;;;;;;;;;;16.40;77.30;;;;;;4153991;28;19932;-85
2023/09/22 07:41:17;;;;;;;;;;;16.30;77.20;;;;;;4157706;28;19917;-85
2023/09/22 07:43:17;;;;;;;;;;;16.40;77.10;;;;;;4173510;28;19916;-85
2023/09/22 07:45:19;;;;;;;;;;;16.30;77.00;;;;;;4171871;28;19928;-86
2023/09/22 07:47:19;;;;;;;;;;;16.30;76.90;;;;;;4171214;28;19952;-85
2023/09/22 07:49:20;;;;;;;;;;;16.40;76.90;;;;;;4172352;28;19963;-84
2023/09/22 07:51:22;;;;;;;;;;;16.40;76.90;;;;;;4155040;28;19921;-83
2023/09/22 07:53:25;;;;;;;;;;;16.50;76.90;;;;;;4159648;28;20310;-84
2023/09/22 07:55:26;;;;;;;;;;;16.40;76.90;;;;;;4177993;28;20019;-83
2023/09/22 07:57:30;;;;;;;;;;;16.40;77.50;;;;;;4164668;28;20306;-83
2023/09/22 07:59:30;;;;;;;;;;;16.40;77.20;;;;;;4180115;28;19955;-83
2023/09/22 08:01:31;;;;;;;;;;;16.40;77.20;;;;;;4178022;28;19921;-81
2023/09/22 08:03:32;;;;;;;;;;;16.50;77.10;;;;;;4163605;28;20020;-83
2023/09/22 08:05:34;;;;;;;;;;;16.40;76.90;;;;;;4168320;28;19917;-83
2023/09/22 08:07:34;;;;;;;;;;;16.40;76.90;;;;;;4179542;28;19940;-83
2023/09/22 08:09:35;;;;;;;;;;;16.40;76.70;;;;;;4176764;28;19917;-83
2023/09/22 08:11:35;;;;;;;;;;;16.50;76.70;;;;;;4178099;28;19920;-83
2023/09/22 08:13:36;;;;;;;;;;;16.40;76.60;;;;;;4162635;28;19960;-84
2023/09/22 08:15:37;;;;;;;;;;;16.50;76.80;;;;;;4177647;28;19920;-84
2023/09/22 08:17:58;;;;;;;;;;;16.40;77.60;;;;;;4171723;28;19960;-83
2023/09/22 08:20:19;;;;;;;;;;;16.50;76.70;;;;;;4178359;28;19916;-83
2023/09/22 08:22:40;;;;;;;;;;;16.50;76.80;;;;;;4169021;28;19921;-84
2023/09/22 08:25:02;;;;;;;;;;;16.50;77.00;;;;;;4179585;28;20004;-84
2023/09/22 08:27:23;;;;;;;;;;;16.60;76.90;;;;;;4179274;28;19917;-84
2023/09/22 08:29:43;;;;;;;;;;;16.70;77.00;;;;;;4179229;28;19930;-84
2023/09/22 08:32:04;;;;;;;;;;;16.60;76.80;;;;;;4182077;28;19917;-84
2023/09/22 08:34:25;;;;;;;;;;;16.70;76.70;;;;;;4171942;28;19917;-85
2023/09/22 08:36:38;;;;;;;;;;;16.70;76.80;;;;;;4181395;28;19917;-84
2023/09/22 08:38:38;;;;;;;;;;;16.90;77.20;;;;;;4163799;28;20320;-85
2023/09/22 08:40:39;;;;;;;;;;;16.90;77.60;;;;;;4164339;28;20009;-84
2023/09/22 08:42:39;;;;;;;;;;;17.00;78.10;;;;;;4161171;28;19956;-84
2023/09/22 08:44:40;;;;;;;;;;;16.90;78.00;;;;;;4175783;28;19909;-85
2023/09/22 08:46:41;;;;;;;;;;;17.00;78.40;;;;;;4165005;28;19909;-84
2023/09/22 08:48:41;;;;;;;;;;;17.00;78.20;;;;;;4173829;28;19917;-84
2023/09/22 08:50:43;;;;;;;;;;;17.10;78.20;;;;;;4159655;28;19959;-84
2023/09/22 08:52:53;;;;;;;;;;;17.20;78.00;;;;;;4159642;28;20414;-85
2023/09/22 08:54:54;;;;;;;;;;;17.10;77.60;;;;;;4171610;28;19917;-84
2023/09/22 08:56:55;;;;;;;;;;;17.20;77.40;;;;;;4141569;28;19925;-85
2023/09/22 08:58:55;;;;;;;;;;;17.20;77.20;;;;;;4157566;28;19947;-85
2023/09/22 09:00:56;;;;;;;;;;;17.30;77.40;;;;;;4172803;28;19917;-84
2023/09/22 09:02:58;;;;;;;;;;;17.20;76.90;;;;;;4160672;28;19917;-84
2023/09/22 09:04:59;;;;;;;;;;;17.30;76.60;;;;;;4158491;28;19927;-84
2023/09/22 09:07:02;;;;;;;;;;;17.30;76.90;;;;;;4175691;28;19953;-85
2023/09/22 09:09:04;;;;;;;;;;;17.30;76.60;;;;;;4177297;28;19919;-84
2023/09/22 09:11:09;;;;;;;;;;;17.30;76.70;;;;;;4155981;28;19944;-85
2023/09/22 09:13:17;;;;;;;;;;;17.30;77.20;;;;;;4155863;28;19985;-85
2023/09/22 09:15:18;;;;;;;;;;;17.30;76.50;;;;;;4160713;28;20464;-84
2023/09/22 09:17:19;;;;;;;;;;;17.40;76.90;;;;;;4178373;28;20027;-85
2023/09/22 09:19:20;;;;;;;;;;;17.40;76.90;;;;;;4176321;28;20541;-84
2023/09/22 09:21:21;;;;;;;;;;;17.40;77.30;;;;;;4176806;28;19921;-84
2023/09/22 09:23:23;;;;;;;;;;;17.50;77.60;;;;;;4176929;28;19927;-85
2023/09/22 09:25:24;;;;;;;;;;;17.50;77.40;;;;;;4174657;28;19905;-85
2023/09/22 09:27:24;;;;;;;;;;;17.60;77.00;;;;;;4194320;28;19904;-85
2023/09/22 09:29:28;;;;;;;;;;;17.70;76.50;;;;;;4183048;28;19936;-84
2023/09/22 09:31:45;;;;;;;;;;;17.60;76.90;;;;;;4185578;28;20370;-85
2023/09/22 09:33:53;;;;;;;;;;;17.60;76.30;;;;;;4174602;28;19920;-84
2023/09/22 09:35:54;;;;;;;;;;;17.70;76.20;;;;;;4174384;28;19917;-85
2023/09/22 09:38:03;;;;;;;;;;;17.70;75.80;;;;;;4156106;28;20416;-86
2023/09/22 09:40:10;;;;;;;;;;;17.70;76.00;;;;;;4153506;28;20018;-85
2023/09/22 09:42:14;;;;;;;;;;;17.80;76.10;;;;;;4172890;28;19920;-86
2023/09/22 09:44:16;;;;;;;;;;;17.70;75.90;;;;;;4159424;28;19912;-85
2023/09/22 09:46:17;;;;;;;;;;;17.90;76.10;;;;;;4157085;28;19909;-86
2023/09/22 09:48:19;;;;;;;;;;;17.90;76.00;;;;;;4172585;28;20119;-84
2023/09/22 09:50:20;;;;;;;;;;;17.90;75.80;;;;;;4156477;28;19917;-85
2023/09/22 09:52:24;;;;;;;;;;;18.00;75.70;;;;;;4175027;28;20305;-86
2023/09/22 09:54:24;;;;;;;;;;;18.00;75.80;;;;;;4157810;28;19960;-85
2023/09/22 09:56:26;;;;;;;;;;;18.00;75.80;;;;;;4170832;28;19920;-86
2023/09/22 09:58:31;;;;;;;;;;;18.10;75.90;;;;;;4174238;28;19909;-85
2023/09/22 10:00:35;;;;;;;;;;;18.10;75.90;;;;;;4174206;28;19916;-86
2023/09/22 10:02:36;;;;;;;;;;;18.20;76.00;;;;;;4157793;28;19920;-85
2023/09/22 10:04:39;;;;;;;;;;;18.30;76.10;;;;;;4175984;28;19915;-86
2023/09/22 10:06:40;;;;;;;;;;;18.30;75.90;;;;;;4176087;28;19988;-83
2023/09/22 10:08:41;;;;;;;;;;;18.40;75.10;;;;;;4172551;28;20035;-87
2023/09/22 10:10:42;;;;;;;;;;;18.40;75.10;;;;;;4153735;28;19917;-86
2023/09/22 10:12:44;;;;;;;;;;;18.50;74.00;;;;;;4168134;28;19920;-86
2023/09/22 10:14:46;;;;;;;;;;;18.40;72.30;;;;;;4172370;28;20621;-85
2023/09/22 10:16:53;;;;;;;;;;;18.40;70.20;;;;;;4156101;28;19913;-87
2023/09/22 10:18:59;;;;;;;;;;;18.30;70.20;;;;;;4174256;28;20462;-87
2023/09/22 10:21:00;;;;;;;;;;;18.30;70.50;;;;;;4171351;28;19962;-87
2023/09/22 10:23:19;;;;;;;;;;;18.30;70.40;;;;;;4173479;28;20070;-88
2023/09/22 10:25:21;;;;;;;;;;;18.20;70.50;;;;;;4175589;28;20014;-87
2023/09/22 10:27:22;;;;;;;;;;;18.20;70.70;;;;;;4158217;28;20477;-86
2023/09/22 10:29:37;;;;;;;;;;;18.20;71.00;;;;;;4174713;28;19975;-87
2023/09/22 10:31:58;;;;;;;;;;;18.20;71.30;;;;;;4171431;28;20349;-89
2023/09/22 10:33:59;;;;;;;;;;;18.20;71.50;;;;;;4173725;28;20007;-86
2023/09/22 10:36:00;;;;;;;;;;;18.20;71.40;;;;;;4169670;28;20306;-86
2023/09/22 10:38:02;;;;;;;;;;;18.30;71.30;;;;;;4157176;28;20387;-85
2023/09/22 10:40:11;;;;;;;;;;;18.30;71.00;;;;;;4155954;28;19995;-87
2023/09/22 10:42:11;;;;;;;;;;;18.30;70.40;;;;;;4160267;28;19920;-86
2023/09/22 10:44:12;;;;;;;;;;;18.40;70.50;;;;;;4172354;28;19917;-84
2023/09/22 10:46:16;;;;;;;;;;;18.40;70.20;;;;;;4176119;28;19916;-87
2023/09/22 10:48:18;;;;;;;;;;;18.40;70.00;;;;;;4165303;28;20014;-87
2023/09/22 10:50:24;;;;;;;;;;;18.40;70.00;;;;;;4162147;28;20322;-86
2023/09/22 10:52:28;;;;;;;;;;;18.50;70.30;;;;;;4179143;28;20507;-85
2023/09/22 10:54:40;;;;;;;;;;;18.50;69.80;;;;;;4159931;28;20409;-87
2023/09/22 10:56:40;;;;;;;;;;;18.50;68.20;;;;;;4169951;28;20002;-87
2023/09/22 10:58:48;;;;;;;;;;;18.60;68.10;;;;;;4171614;28;19917;-88
2023/09/22 11:01:00;;;;;;;;;;;18.50;68.40;;;;;;4142139;28;19917;-86
2023/09/22 11:03:04;;;;;;;;;;;18.60;68.50;;;;;;4170679;28;20289;-86
2023/09/22 11:05:05;;;;;;;;;;;18.70;68.50;;;;;;4171151;28;19913;-87
2023/09/22 11:07:06;;;;;;;;;;;18.70;68.80;;;;;;4171600;28;19984;-88
2023/09/22 11:09:07;;;;;;;;;;;18.70;68.00;;;;;;4155107;28;19910;-86
2023/09/22 11:11:07;;;;;;;;;;;18.70;68.90;;;;;;4173149;28;19913;-87
2023/09/22 11:13:08;;;;;;;;;;;18.90;68.80;;;;;;4155812;28;20329;-87
2023/09/22 11:15:29;;;;;;;;;;;18.90;68.00;;;;;;4170847;28;20400;-86
2023/09/22 11:17:36;;;;;;;;;;;19.00;67.50;;;;;;4157957;28;19948;-87
2023/09/22 11:19:58;;;;;;;;;;;19.00;66.90;;;;;;4192418;28;19943;-87
2023/09/22 11:22:00;;;;;;;;;;;19.10;66.20;;;;;;4193020;28;19964;-87
2023/09/22 11:24:21;;;;;;;;;;;19.00;65.20;;;;;;4163246;28;20514;-88
2023/09/22 11:26:42;;;;;;;;;;;19.10;66.70;;;;;;4174211;28;20651;-86
2023/09/22 11:29:04;;;;;;;;;;;19.10;67.00;;;;;;4173582;28;20440;-86
2023/09/22 11:31:24;;;;;;;;;;;19.10;64.80;;;;;;4175218;28;20397;-86
2023/09/22 11:33:46;;;;;;;;;;;19.00;65.10;;;;;;4158370;28;20022;-86
2023/09/22 11:36:07;;;;;;;;;;;19.10;66.10;;;;;;4175075;28;20386;-86
2023/09/22 11:38:28;;;;;;;;;;;19.10;66.80;;;;;;4172812;28;20439;-85
2023/09/22 11:44:12;;;;;;;;;;;19.10;67.00;;;;;;4089270;28;20691;-87
2023/09/22 11:52:09;;;;;;;;;;;19.20;66.50;;;;;;4171627;28;19916;-86
2023/09/22 11:54:13;;;;;;;;;;;19.30;66.90;;;;;;4160794;28;20671;-86
2023/09/22 11:56:14;;;;;;;;;;;19.30;66.30;;;;;;4155912;28;19917;-87
2023/09/22 11:58:15;;;;;;;;;;;19.30;65.40;;;;;;4174621;28;19912;-84
2023/09/22 12:00:17;;;;;;;;;;;19.40;64.20;;;;;;4159018;28;19920;-85
2023/09/22 12:02:18;;;;;;;;;;;19.40;63.00;;;;;;4173165;28;20348;-86
2023/09/22 12:04:19;;;;;;;;;;;19.40;62.20;;;;;;4140743;28;19953;-87
2023/09/22 12:06:20;;;;;;;;;;;19.40;61.30;;;;;;4173628;28;20283;-87
2023/09/22 12:08:21;;;;;;;;;;;19.50;62.30;;;;;;4172775;28;19921;-84
2023/09/22 12:10:22;;;;;;;;;;;19.40;62.10;;;;;;4173879;28;20042;-85
2023/09/22 12:12:22;;;;;;;;;;;19.50;63.40;;;;;;4179945;28;19917;-84
2023/09/22 12:14:23;;;;;;;;;;;19.50;63.90;;;;;;4178052;28;19912;-83
2023/09/22 12:16:24;;;;;;;;;;;19.50;64.10;;;;;;4181381;28;20331;-83
2023/09/22 12:18:24;;;;;;;;;;;19.60;64.40;;;;;;4179625;28;19980;-84
2023/09/22 12:20:27;;;;;;;;;;;19.60;64.40;;;;;;4150791;28;19971;-83
2023/09/22 12:22:29;;;;;;;;;;;19.60;63.70;;;;;;4162549;28;19917;-83
2023/09/22 12:24:30;;;;;;;;;;;19.70;63.40;;;;;;4178072;28;20382;-85
2023/09/22 12:26:31;;;;;;;;;;;19.70;63.40;;;;;;4156816;28;19932;-84